< < Back
Terminal Aerodrome Forecast


Current Version              Previous Versions:   1  2  3  4  5  6  7  8  9  

Terminal Aerodrome Forecast

372
FTUS42 KTAE 311735
TAFTLH
TAF
KTLH 311735Z 3118/0118 29009G16KT P6SM SCT025 BKN250
      TEMPO 3122/0102 VRB15KT 3SM TSRA SCT025 BKN050CB
     FM010200 21008KT P6SM BKN250
     FM010600 23004KT 2SM BR OVC008
     FM010900 00000KT 1/2SM FG OVC004
     FM011400 28007KT P6SM BKN250=



Latest METAR

023
SAUS80 KWBC 010900 RRE
MTRTLH
METAR KTLH 010853Z AUTO 25007KT 10SM CLR 20/18 A3003 RMK AO2 SLP167
T02000183 53001


USA.gov is the U.S. government's official web portal to all federal, state and local government web resources and services.